CYBW/YBW METAR and TAF weather

Enter ICAO airport designator
Station Type Date Time Source
CYBW METAR 2020/11/28 20:00 UTC NOAA

CYBW 282000Z AUTO 36011KT 9SM CLR M01/M07 A3008 RMK SLP224


Station Type Date Time Source
CYBW Decoded METAR 2020/11/28 20:00 UTC NOAA

Calgary / Springbank, Canada (CYBW) 51-06N 114-22W
Nov 28, 2020 - 03:00 PM EST / 2020.11.28 2000 UTC
Wind: from the N (360 degrees) at 13 MPH (11 KT):0
Visibility: 9 mile(s):0
Sky conditions: clear
Temperature: 30 F (-1 C)
Windchill: 19 F (-7 C):1
Dew Point: 19 F (-7 C)
Relative Humidity: 63%
Pressure (altimeter): 30.08 in. Hg (1018 hPa)
ob: CYBW 282000Z AUTO 36011KT 9SM CLR M01/M07 A3008 RMK SLP224
cycle: 20

Station Type Date Time Source
CYBW TAF 2020/11/28 18:00 UTC NOAA

TAF CYBW 281741Z 2818/2905 01012G22KT P6SM SCT020
TEMPO 2818/2819 BKN020
FM281900 01010KT P6SM BKN080
TEMPO 2819/2822 5SM -SHSN
FM282200 36008KT P6SM SKC
BECMG 2822/2824 VRB03KT
FM290300 21008KT P6SM SKC
RMK FCST BASED ON AUTO OBS. NXT FCST BY 290000Z

Example: see airport list